sensor_id;sensor_type;location;lat;lon;timestamp;pressure;altitude;pressure_sealevel;temperature;humidity
16016;BME280;8112;53.592;10.184;2023-03-08T00:02:26;99385.63;;;-0.33;100.00
16016;BME280;8112;53.592;10.184;2023-03-08T00:07:29;99401.94;;;-0.31;100.00
16016;BME280;8112;53.592;10.184;2023-03-08T00:12:30;99400.44;;;-0.12;100.00
16016;BME280;8112;53.592;10.184;2023-03-08T00:17:34;99396.50;;;-0.23;100.00
16016;BME280;8112;53.592;10.184;2023-03-08T00:22:38;99407.63;;;-0.21;100.00
16016;BME280;8112;53.592;10.184;2023-03-08T00:27:40;99404.47;;;-0.29;100.00
16016;BME280;8112;53.592;10.184;2023-03-08T00:32:42;99409.88;;;-0.35;100.00
16016;BME280;8112;53.592;10.184;2023-03-08T00:37:47;99411.66;;;-0.37;100.00
16016;BME280;8112;53.592;10.184;2023-03-08T00:42:50;99417.28;;;-0.50;100.00
16016;BME280;8112;53.592;10.184;2023-03-08T00:47:51;99420.13;;;-0.58;100.00
16016;BME280;8112;53.592;10.184;2023-03-08T00:52:54;99418.47;;;-0.60;100.00
16016;BME280;8112;53.592;10.184;2023-03-08T00:57:56;99423.81;;;-0.65;100.00
16016;BME280;8112;53.592;10.184;2023-03-08T01:02:58;99428.44;;;-0.75;100.00
16016;BME280;8112;53.592;10.184;2023-03-08T01:08:02;99444.97;;;-0.79;100.00
16016;BME280;8112;53.592;10.184;2023-03-08T01:13:06;99445.84;;;-0.78;100.00
16016;BME280;8112;53.592;10.184;2023-03-08T01:18:09;99444.88;;;-0.76;100.00
16016;BME280;8112;53.592;10.184;2023-03-08T01:23:12;99447.38;;;-0.73;100.00
16016;BME280;8112;53.592;10.184;2023-03-08T01:28:14;99428.16;;;-0.65;100.00
16016;BME280;8112;53.592;10.184;2023-03-08T01:33:16;99413.38;;;-0.62;100.00
16016;BME280;8112;53.592;10.184;2023-03-08T01:38:19;99417.19;;;-0.74;100.00
16016;BME280;8112;53.592;10.184;2023-03-08T01:43:22;99419.59;;;-0.94;100.00
16016;BME280;8112;53.592;10.184;2023-03-08T01:48:29;99419.81;;;-1.01;100.00
16016;BME280;8112;53.592;10.184;2023-03-08T01:53:41;99416.13;;;-0.93;100.00
16016;BME280;8112;53.592;10.184;2023-03-08T01:58:44;99411.19;;;-1.01;100.00
16016;BME280;8112;53.592;10.184;2023-03-08T02:03:48;99412.97;;;-1.02;100.00
16016;BME280;8112;53.592;10.184;2023-03-08T02:08:56;99411.25;;;-1.03;100.00
16016;BME280;8112;53.592;10.184;2023-03-08T02:14:05;99405.31;;;-1.05;100.00
16016;BME280;8112;53.592;10.184;2023-03-08T02:19:12;99397.66;;;-1.08;100.00
16016;BME280;8112;53.592;10.184;2023-03-08T02:24:19;99401.94;;;-1.07;100.00
16016;BME280;8112;53.592;10.184;2023-03-08T02:29:21;99402.22;;;-1.16;100.00
16016;BME280;8112;53.592;10.184;2023-03-08T02:34:23;99411.75;;;-1.18;100.00
16016;BME280;8112;53.592;10.184;2023-03-08T02:39:26;99402.31;;;-1.19;100.00
16016;BME280;8112;53.592;10.184;2023-03-08T02:44:28;99403.31;;;-1.23;100.00
16016;BME280;8112;53.592;10.184;2023-03-08T02:49:30;99419.22;;;-0.82;100.00
16016;BME280;8112;53.592;10.184;2023-03-08T02:54:33;99416.22;;;-0.44;100.00
16016;BME280;8112;53.592;10.184;2023-03-08T02:59:35;99413.09;;;-0.29;100.00
16016;BME280;8112;53.592;10.184;2023-03-08T03:04:37;99409.78;;;-0.32;100.00
16016;BME280;8112;53.592;10.184;2023-03-08T03:09:40;99411.19;;;-0.23;100.00
16016;BME280;8112;53.592;10.184;2023-03-08T03:14:42;99404.50;;;-0.05;100.00
16016;BME280;8112;53.592;10.184;2023-03-08T03:19:44;99412.41;;;-0.10;100.00
16016;BME280;8112;53.592;10.184;2023-03-08T03:24:48;99416.25;;;-0.20;100.00
16016;BME280;8112;53.592;10.184;2023-03-08T03:29:50;99425.38;;;-0.10;100.00
16016;BME280;8112;53.592;10.184;2023-03-08T03:34:52;99416.72;;;-0.09;100.00
16016;BME280;8112;53.592;10.184;2023-03-08T03:39:57;99424.78;;;0.07;100.00
16016;BME280;8112;53.592;10.184;2023-03-08T03:44:59;99427.38;;;0.07;100.00
16016;BME280;8112;53.592;10.184;2023-03-08T03:50:01;99423.88;;;0.08;100.00
16016;BME280;8112;53.592;10.184;2023-03-08T03:55:12;99427.63;;;0.23;100.00
16016;BME280;8112;53.592;10.184;2023-03-08T04:00:15;99434.91;;;0.37;100.00
16016;BME280;8112;53.592;10.184;2023-03-08T04:05:24;99431.97;;;0.23;100.00
16016;BME280;8112;53.592;10.184;2023-03-08T04:10:30;99427.06;;;0.39;100.00
16016;BME280;8112;53.592;10.184;2023-03-08T04:15:32;99426.41;;;0.34;100.00
16016;BME280;8112;53.592;10.184;2023-03-08T04:20:38;99426.31;;;0.35;100.00
16016;BME280;8112;53.592;10.184;2023-03-08T04:25:41;99426.81;;;0.23;100.00
16016;BME280;8112;53.592;10.184;2023-03-08T04:30:45;99435.97;;;0.32;100.00
16016;BME280;8112;53.592;10.184;2023-03-08T04:35:50;99427.78;;;0.42;100.00
16016;BME280;8112;53.592;10.184;2023-03-08T04:40:56;99430.25;;;0.46;100.00
16016;BME280;8112;53.592;10.184;2023-03-08T04:46:13;99422.63;;;0.42;100.00
16016;BME280;8112;53.592;10.184;2023-03-08T04:51:16;99433.19;;;0.36;100.00
16016;BME280;8112;53.592;10.184;2023-03-08T04:56:21;99432.97;;;0.42;100.00
16016;BME280;8112;53.592;10.184;2023-03-08T05:01:24;99423.63;;;0.38;100.00
16016;BME280;8112;53.592;10.184;2023-03-08T05:06:27;99426.22;;;0.38;100.00
16016;BME280;8112;53.592;10.184;2023-03-08T05:11:32;99434.09;;;0.35;100.00
16016;BME280;8112;53.592;10.184;2023-03-08T05:16:34;99426.44;;;0.32;100.00
16016;BME280;8112;53.592;10.184;2023-03-08T05:21:37;99431.88;;;0.26;100.00
16016;BME280;8112;53.592;10.184;2023-03-08T05:26:40;99417.09;;;0.28;100.00
16016;BME280;8112;53.592;10.184;2023-03-08T05:31:44;99422.16;;;0.31;100.00
16016;BME280;8112;53.592;10.184;2023-03-08T05:36:47;99413.31;;;0.37;100.00
16016;BME280;8112;53.592;10.184;2023-03-08T05:41:50;99414.06;;;0.40;100.00
16016;BME280;8112;53.592;10.184;2023-03-08T05:46:59;99415.75;;;0.41;100.00
16016;BME280;8112;53.592;10.184;2023-03-08T05:52:01;99417.31;;;0.46;100.00
16016;BME280;8112;53.592;10.184;2023-03-08T05:57:04;99425.97;;;0.45;100.00
16016;BME280;8112;53.592;10.184;2023-03-08T06:02:07;99424.41;;;0.40;100.00
16016;BME280;8112;53.592;10.184;2023-03-08T06:07:16;99429.31;;;0.48;100.00
16016;BME280;8112;53.592;10.184;2023-03-08T06:12:24;99430.50;;;0.39;100.00
16016;BME280;8112;53.592;10.184;2023-03-08T06:17:30;99427.91;;;0.39;100.00
16016;BME280;8112;53.592;10.184;2023-03-08T06:22:33;99430.63;;;0.59;100.00
16016;BME280;8112;53.592;10.184;2023-03-08T06:27:37;99427.84;;;0.41;100.00
16016;BME280;8112;53.592;10.184;2023-03-08T06:32:46;99429.25;;;0.50;100.00
16016;BME280;8112;53.592;10.184;2023-03-08T06:37:48;99422.81;;;0.36;100.00
16016;BME280;8112;53.592;10.184;2023-03-08T06:42:51;99424.75;;;0.55;100.00
16016;BME280;8112;53.592;10.184;2023-03-08T06:47:53;99427.09;;;0.61;100.00
16016;BME280;8112;53.592;10.184;2023-03-08T06:52:55;99412.06;;;0.47;100.00
16016;BME280;8112;53.592;10.184;2023-03-08T06:58:10;99419.38;;;0.82;100.00
16016;BME280;8112;53.592;10.184;2023-03-08T07:03:12;99417.69;;;0.81;100.00
16016;BME280;8112;53.592;10.184;2023-03-08T07:08:14;99423.28;;;0.92;100.00
16016;BME280;8112;53.592;10.184;2023-03-08T07:13:17;99421.19;;;0.80;100.00
16016;BME280;8112;53.592;10.184;2023-03-08T07:18:19;99432.84;;;0.90;100.00
16016;BME280;8112;53.592;10.184;2023-03-08T07:23:21;99437.81;;;0.96;100.00
16016;BME280;8112;53.592;10.184;2023-03-08T07:28:24;99440.25;;;1.01;100.00
16016;BME280;8112;53.592;10.184;2023-03-08T07:33:26;99436.47;;;1.08;100.00
16016;BME280;8112;53.592;10.184;2023-03-08T07:38:27;99437.06;;;1.15;100.00
16016;BME280;8112;53.592;10.184;2023-03-08T07:43:30;99426.31;;;1.24;100.00
16016;BME280;8112;53.592;10.184;2023-03-08T07:48:37;99419.09;;;1.31;100.00
16016;BME280;8112;53.592;10.184;2023-03-08T07:53:39;99423.06;;;1.61;100.00
16016;BME280;8112;53.592;10.184;2023-03-08T07:58:42;99419.81;;;1.76;100.00
16016;BME280;8112;53.592;10.184;2023-03-08T08:03:44;99418.44;;;1.67;100.00
16016;BME280;8112;53.592;10.184;2023-03-08T08:08:45;99422.53;;;1.73;100.00
16016;BME280;8112;53.592;10.184;2023-03-08T08:13:48;99426.88;;;1.93;100.00
16016;BME280;8112;53.592;10.184;2023-03-08T08:18:51;99416.81;;;2.05;100.00
16016;BME280;8112;53.592;10.184;2023-03-08T08:23:52;99413.31;;;1.87;100.00
16016;BME280;8112;53.592;10.184;2023-03-08T08:28:58;99401.66;;;1.95;100.00
16016;BME280;8112;53.592;10.184;2023-03-08T08:34:00;99400.66;;;1.98;100.00
16016;BME280;8112;53.592;10.184;2023-03-08T08:39:02;99395.31;;;2.01;100.00
16016;BME280;8112;53.592;10.184;2023-03-08T08:44:05;99402.47;;;1.77;100.00
16016;BME280;8112;53.592;10.184;2023-03-08T08:49:08;99403.91;;;2.03;100.00
16016;BME280;8112;53.592;10.184;2023-03-08T08:54:10;99400.94;;;1.92;100.00
16016;BME280;8112;53.592;10.184;2023-03-08T08:59:13;99412.06;;;2.34;100.00
16016;BME280;8112;53.592;10.184;2023-03-08T09:04:16;99419.44;;;2.43;100.00
16016;BME280;8112;53.592;10.184;2023-03-08T09:09:20;99408.13;;;2.25;100.00
16016;BME280;8112;53.592;10.184;2023-03-08T09:14:23;99412.63;;;2.40;100.00
16016;BME280;8112;53.592;10.184;2023-03-08T09:19:25;99413.34;;;2.25;100.00
16016;BME280;8112;53.592;10.184;2023-03-08T09:24:26;99402.16;;;2.42;100.00
16016;BME280;8112;53.592;10.184;2023-03-08T09:29:29;99399.25;;;2.85;100.00
16016;BME280;8112;53.592;10.184;2023-03-08T09:34:32;99400.91;;;3.05;100.00
16016;BME280;8112;53.592;10.184;2023-03-08T09:39:34;99397.38;;;3.24;100.00
16016;BME280;8112;53.592;10.184;2023-03-08T09:44:54;99393.88;;;2.70;100.00
16016;BME280;8112;53.592;10.184;2023-03-08T09:50:05;99386.69;;;2.39;100.00
16016;BME280;8112;53.592;10.184;2023-03-08T09:55:16;99388.63;;;2.53;100.00
16016;BME280;8112;53.592;10.184;2023-03-08T10:00:24;99387.16;;;2.84;100.00
16016;BME280;8112;53.592;10.184;2023-03-08T10:05:32;99372.00;;;3.27;100.00
16016;BME280;8112;53.592;10.184;2023-03-08T10:10:41;99372.75;;;3.47;100.00
16016;BME280;8112;53.592;10.184;2023-03-08T10:15:50;99363.81;;;3.35;100.00
16016;BME280;8112;53.592;10.184;2023-03-08T10:20:52;99361.00;;;3.40;100.00
16016;BME280;8112;53.592;10.184;2023-03-08T10:25:54;99356.63;;;3.40;100.00
16016;BME280;8112;53.592;10.184;2023-03-08T10:30:59;99362.53;;;3.26;100.00
16016;BME280;8112;53.592;10.184;2023-03-08T10:36:07;99359.03;;;3.61;100.00
16016;BME280;8112;53.592;10.184;2023-03-08T10:41:14;99348.53;;;3.63;100.00
16016;BME280;8112;53.592;10.184;2023-03-08T10:46:19;99346.44;;;3.69;100.00
16016;BME280;8112;53.592;10.184;2023-03-08T10:51:22;99342.63;;;3.93;100.00
16016;BME280;8112;53.592;10.184;2023-03-08T10:56:35;99335.72;;;3.76;100.00
16016;BME280;8112;53.592;10.184;2023-03-08T11:01:48;99342.78;;;3.90;100.00
16016;BME280;8112;53.592;10.184;2023-03-08T11:06:50;99330.91;;;4.00;100.00
16016;BME280;8112;53.592;10.184;2023-03-08T11:11:52;99328.19;;;4.03;100.00
16016;BME280;8112;53.592;10.184;2023-03-08T11:17:14;99319.84;;;3.96;100.00
16016;BME280;8112;53.592;10.184;2023-03-08T11:22:28;99316.34;;;4.60;100.00
16016;BME280;8112;53.592;10.184;2023-03-08T11:27:43;99308.28;;;4.79;100.00
16016;BME280;8112;53.592;10.184;2023-03-08T11:33:00;99312.47;;;5.12;100.00
16016;BME280;8112;53.592;10.184;2023-03-08T11:38:08;99303.78;;;5.12;100.00
16016;BME280;8112;53.592;10.184;2023-03-08T11:43:30;99300.16;;;5.14;100.00
16016;BME280;8112;53.592;10.184;2023-03-08T11:49:05;99301.94;;;5.43;100.00
16016;BME280;8112;53.592;10.184;2023-03-08T11:54:15;99300.16;;;5.29;100.00
16016;BME280;8112;53.592;10.184;2023-03-08T11:59:27;99291.19;;;5.19;100.00
16016;BME280;8112;53.592;10.184;2023-03-08T12:04:36;99292.81;;;5.36;100.00
16016;BME280;8112;53.592;10.184;2023-03-08T12:09:52;99299.34;;;5.43;100.00
16016;BME280;8112;53.592;10.184;2023-03-08T12:14:58;99290.91;;;5.09;100.00
16016;BME280;8112;53.592;10.184;2023-03-08T12:20:03;99283.38;;;5.04;100.00
16016;BME280;8112;53.592;10.184;2023-03-08T12:25:14;99281.41;;;5.66;100.00
16016;BME280;8112;53.592;10.184;2023-03-08T12:30:25;99275.06;;;5.55;100.00
16016;BME280;8112;53.592;10.184;2023-03-08T12:35:34;99277.03;;;5.52;100.00
16016;BME280;8112;53.592;10.184;2023-03-08T12:40:39;99270.09;;;5.80;100.00
16016;BME280;8112;53.592;10.184;2023-03-08T12:45:43;99273.31;;;5.98;100.00
16016;BME280;8112;53.592;10.184;2023-03-08T12:50:57;99257.97;;;5.79;100.00
16016;BME280;8112;53.592;10.184;2023-03-08T12:56:02;99256.63;;;6.81;100.00
16016;BME280;8112;53.592;10.184;2023-03-08T13:01:21;99256.63;;;6.68;100.00
16016;BME280;8112;53.592;10.184;2023-03-08T13:06:43;99272.81;;;6.48;100.00
16016;BME280;8112;53.592;10.184;2023-03-08T13:11:54;99275.81;;;6.82;100.00
16016;BME280;8112;53.592;10.184;2023-03-08T13:16:58;99264.28;;;6.31;100.00
16016;BME280;8112;53.592;10.184;2023-03-08T13:22:09;99265.28;;;6.56;100.00
16016;BME280;8112;53.592;10.184;2023-03-08T13:27:20;99266.00;;;6.45;100.00
16016;BME280;8112;53.592;10.184;2023-03-08T13:32:23;99265.97;;;6.32;100.00
16016;BME280;8112;53.592;10.184;2023-03-08T13:37:28;99270.44;;;5.88;100.00
16016;BME280;8112;53.592;10.184;2023-03-08T13:42:30;99279.50;;;5.82;100.00
16016;BME280;8112;53.592;10.184;2023-03-08T13:47:33;99272.41;;;6.26;100.00
16016;BME280;8112;53.592;10.184;2023-03-08T13:52:37;99275.81;;;6.82;100.00
16016;BME280;8112;53.592;10.184;2023-03-08T13:57:39;99273.63;;;7.40;100.00
16016;BME280;8112;53.592;10.184;2023-03-08T14:02:45;99264.59;;;7.58;100.00
16016;BME280;8112;53.592;10.184;2023-03-08T14:07:57;99270.28;;;6.99;100.00
16016;BME280;8112;53.592;10.184;2023-03-08T14:12:59;99261.88;;;6.81;100.00
16016;BME280;8112;53.592;10.184;2023-03-08T14:18:00;99263.50;;;6.44;100.00
16016;BME280;8112;53.592;10.184;2023-03-08T14:23:19;99261.22;;;6.65;100.00
16016;BME280;8112;53.592;10.184;2023-03-08T14:28:33;99250.41;;;6.44;100.00
16016;BME280;8112;53.592;10.184;2023-03-08T14:33:36;99244.00;;;5.93;100.00
16016;BME280;8112;53.592;10.184;2023-03-08T14:38:39;99251.00;;;5.36;100.00
16016;BME280;8112;53.592;10.184;2023-03-08T14:43:46;99243.34;;;5.04;100.00
16016;BME280;8112;53.592;10.184;2023-03-08T14:48:56;99232.19;;;5.16;100.00
16016;BME280;8112;53.592;10.184;2023-03-08T14:54:01;99238.66;;;4.80;100.00
16016;BME280;8112;53.592;10.184;2023-03-08T14:59:03;99229.94;;;5.39;100.00
16016;BME280;8112;53.592;10.184;2023-03-08T15:04:14;99216.50;;;5.73;100.00
16016;BME280;8112;53.592;10.184;2023-03-08T15:09:19;99212.84;;;5.90;100.00
16016;BME280;8112;53.592;10.184;2023-03-08T15:14:21;99214.06;;;5.27;100.00
16016;BME280;8112;53.592;10.184;2023-03-08T15:19:23;99222.84;;;5.26;100.00
16016;BME280;8112;53.592;10.184;2023-03-08T15:24:26;99222.00;;;5.11;100.00
16016;BME280;8112;53.592;10.184;2023-03-08T15:29:30;99221.00;;;5.14;100.00
16016;BME280;8112;53.592;10.184;2023-03-08T15:34:32;99215.00;;;4.83;100.00
16016;BME280;8112;53.592;10.184;2023-03-08T15:39:35;99218.13;;;4.74;100.00
16016;BME280;8112;53.592;10.184;2023-03-08T15:44:37;99209.38;;;4.60;100.00
16016;BME280;8112;53.592;10.184;2023-03-08T15:49:39;99213.06;;;4.41;100.00
16016;BME280;8112;53.592;10.184;2023-03-08T15:54:43;99211.72;;;4.34;100.00
16016;BME280;8112;53.592;10.184;2023-03-08T15:59:47;99209.28;;;4.01;100.00
16016;BME280;8112;53.592;10.184;2023-03-08T16:04:50;99220.63;;;3.83;100.00
16016;BME280;8112;53.592;10.184;2023-03-08T16:09:56;99214.06;;;3.76;100.00
16016;BME280;8112;53.592;10.184;2023-03-08T16:14:58;99200.13;;;3.77;100.00
16016;BME280;8112;53.592;10.184;2023-03-08T16:19:59;99208.47;;;3.68;100.00
16016;BME280;8112;53.592;10.184;2023-03-08T16:25:03;99206.34;;;3.75;100.00
16016;BME280;8112;53.592;10.184;2023-03-08T16:30:06;99206.19;;;3.62;100.00
16016;BME280;8112;53.592;10.184;2023-03-08T16:35:08;99196.34;;;3.35;100.00
16016;BME280;8112;53.592;10.184;2023-03-08T16:40:12;99197.34;;;3.32;100.00
16016;BME280;8112;53.592;10.184;2023-03-08T16:45:14;99207.00;;;3.14;100.00
16016;BME280;8112;53.592;10.184;2023-03-08T16:50:16;99212.06;;;2.99;100.00
16016;BME280;8112;53.592;10.184;2023-03-08T16:55:19;99214.31;;;2.90;100.00
16016;BME280;8112;53.592;10.184;2023-03-08T17:00:22;99215.47;;;2.84;100.00
16016;BME280;8112;53.592;10.184;2023-03-08T17:05:24;99222.13;;;2.72;100.00
16016;BME280;8112;53.592;10.184;2023-03-08T17:10:27;99218.09;;;2.49;100.00
16016;BME280;8112;53.592;10.184;2023-03-08T17:15:28;99212.72;;;2.34;100.00
16016;BME280;8112;53.592;10.184;2023-03-08T17:20:30;99213.19;;;2.25;100.00
16016;BME280;8112;53.592;10.184;2023-03-08T17:25:34;99218.53;;;2.22;100.00
16016;BME280;8112;53.592;10.184;2023-03-08T17:30:37;99224.03;;;2.16;100.00
16016;BME280;8112;53.592;10.184;2023-03-08T17:35:40;99225.84;;;2.13;100.00
16016;BME280;8112;53.592;10.184;2023-03-08T17:40:43;99230.44;;;2.08;100.00
16016;BME280;8112;53.592;10.184;2023-03-08T17:45:55;99233.41;;;2.01;100.00
16016;BME280;8112;53.592;10.184;2023-03-08T17:51:00;99235.91;;;1.84;100.00
16016;BME280;8112;53.592;10.184;2023-03-08T17:56:06;99237.94;;;1.78;100.00
16016;BME280;8112;53.592;10.184;2023-03-08T18:01:14;99236.31;;;1.75;100.00
16016;BME280;8112;53.592;10.184;2023-03-08T18:06:18;99242.28;;;1.77;100.00
16016;BME280;8112;53.592;10.184;2023-03-08T18:11:23;99244.50;;;1.85;100.00
16016;BME280;8112;53.592;10.184;2023-03-08T18:16:25;99234.47;;;1.77;100.00
16016;BME280;8112;53.592;10.184;2023-03-08T18:21:29;99229.72;;;1.68;100.00
16016;BME280;8112;53.592;10.184;2023-03-08T18:26:32;99241.09;;;1.65;100.00
16016;BME280;8112;53.592;10.184;2023-03-08T18:31:34;99231.06;;;1.58;100.00
16016;BME280;8112;53.592;10.184;2023-03-08T18:36:36;99233.03;;;1.52;100.00
16016;BME280;8112;53.592;10.184;2023-03-08T18:41:39;99226.41;;;1.45;100.00
16016;BME280;8112;53.592;10.184;2023-03-08T18:46:41;99219.53;;;1.44;100.00
16016;BME280;8112;53.592;10.184;2023-03-08T18:51:43;99215.56;;;1.37;100.00
16016;BME280;8112;53.592;10.184;2023-03-08T18:56:46;99214.16;;;1.30;100.00
16016;BME280;8112;53.592;10.184;2023-03-08T19:01:52;99215.47;;;1.19;100.00
16016;BME280;8112;53.592;10.184;2023-03-08T19:06:54;99215.22;;;1.05;100.00
16016;BME280;8112;53.592;10.184;2023-03-08T19:11:57;99210.19;;;1.02;100.00
16016;BME280;8112;53.592;10.184;2023-03-08T19:16:59;99208.56;;;0.99;100.00
16016;BME280;8112;53.592;10.184;2023-03-08T19:22:02;99211.44;;;0.93;100.00
16016;BME280;8112;53.592;10.184;2023-03-08T19:27:05;99214.03;;;0.93;100.00
16016;BME280;8112;53.592;10.184;2023-03-08T19:32:08;99208.13;;;0.89;100.00
16016;BME280;8112;53.592;10.184;2023-03-08T19:37:13;99208.66;;;0.77;100.00
16016;BME280;8112;53.592;10.184;2023-03-08T19:42:17;99208.91;;;0.70;100.00
16016;BME280;8112;53.592;10.184;2023-03-08T19:47:18;99200.50;;;0.65;100.00
16016;BME280;8112;53.592;10.184;2023-03-08T19:52:20;99200.22;;;0.71;100.00
16016;BME280;8112;53.592;10.184;2023-03-08T19:57:23;99196.03;;;0.69;100.00
16016;BME280;8112;53.592;10.184;2023-03-08T20:02:25;99203.47;;;0.77;100.00
16016;BME280;8112;53.592;10.184;2023-03-08T20:07:27;99201.09;;;0.72;100.00
16016;BME280;8112;53.592;10.184;2023-03-08T20:12:30;99207.00;;;0.76;100.00
16016;BME280;8112;53.592;10.184;2023-03-08T20:17:32;99215.25;;;0.84;100.00
16016;BME280;8112;53.592;10.184;2023-03-08T20:22:35;99213.38;;;0.88;100.00
16016;BME280;8112;53.592;10.184;2023-03-08T20:27:39;99216.81;;;0.88;100.00
16016;BME280;8112;53.592;10.184;2023-03-08T20:32:41;99227.03;;;0.91;100.00
16016;BME280;8112;53.592;10.184;2023-03-08T20:37:42;99233.94;;;0.92;100.00
16016;BME280;8112;53.592;10.184;2023-03-08T20:42:46;99231.53;;;0.88;100.00
16016;BME280;8112;53.592;10.184;2023-03-08T20:47:47;99244.66;;;0.84;100.00
16016;BME280;8112;53.592;10.184;2023-03-08T20:52:51;99241.78;;;0.91;100.00
16016;BME280;8112;53.592;10.184;2023-03-08T20:57:54;99223.03;;;0.84;100.00
16016;BME280;8112;53.592;10.184;2023-03-08T21:02:56;99224.53;;;0.90;100.00
16016;BME280;8112;53.592;10.184;2023-03-08T21:07:59;99234.19;;;0.86;100.00
16016;BME280;8112;53.592;10.184;2023-03-08T21:13:02;99241.28;;;0.82;100.00
16016;BME280;8112;53.592;10.184;2023-03-08T21:18:05;99252.09;;;0.92;100.00
16016;BME280;8112;53.592;10.184;2023-03-08T21:23:07;99262.91;;;0.81;100.00
16016;BME280;8112;53.592;10.184;2023-03-08T21:28:10;99260.25;;;0.83;100.00
16016;BME280;8112;53.592;10.184;2023-03-08T21:33:12;99256.91;;;0.81;100.00
16016;BME280;8112;53.592;10.184;2023-03-08T21:38:13;99243.03;;;0.82;100.00
16016;BME280;8112;53.592;10.184;2023-03-08T21:43:17;99226.88;;;0.75;100.00
16016;BME280;8112;53.592;10.184;2023-03-08T21:48:18;99212.28;;;0.73;100.00
16016;BME280;8112;53.592;10.184;2023-03-08T21:53:20;99199.53;;;0.68;100.00
16016;BME280;8112;53.592;10.184;2023-03-08T21:58:23;99187.72;;;0.61;100.00
16016;BME280;8112;53.592;10.184;2023-03-08T22:03:25;99201.00;;;0.53;100.00
16016;BME280;8112;53.592;10.184;2023-03-08T22:08:30;99197.91;;;0.45;100.00
16016;BME280;8112;53.592;10.184;2023-03-08T22:13:33;99207.06;;;0.53;100.00
16016;BME280;8112;53.592;10.184;2023-03-08T22:18:34;99197.28;;;0.60;100.00
16016;BME280;8112;53.592;10.184;2023-03-08T22:23:36;99198.81;;;0.64;100.00
16016;BME280;8112;53.592;10.184;2023-03-08T22:28:39;99193.78;;;0.61;100.00
16016;BME280;8112;53.592;10.184;2023-03-08T22:33:41;99204.19;;;0.60;100.00
16016;BME280;8112;53.592;10.184;2023-03-08T22:38:43;99204.06;;;0.63;100.00
16016;BME280;8112;53.592;10.184;2023-03-08T22:43:46;99193.50;;;0.67;100.00
16016;BME280;8112;53.592;10.184;2023-03-08T22:48:49;99190.13;;;0.65;100.00
16016;BME280;8112;53.592;10.184;2023-03-08T22:53:52;99194.59;;;0.62;100.00
16016;BME280;8112;53.592;10.184;2023-03-08T22:58:57;99199.53;;;0.68;100.00
16016;BME280;8112;53.592;10.184;2023-03-08T23:03:59;99194.41;;;0.66;100.00
16016;BME280;8112;53.592;10.184;2023-03-08T23:09:04;99189.34;;;0.63;100.00
16016;BME280;8112;53.592;10.184;2023-03-08T23:14:08;99190.13;;;0.65;100.00
16016;BME280;8112;53.592;10.184;2023-03-08T23:19:10;99174.56;;;0.65;100.00
16016;BME280;8112;53.592;10.184;2023-03-08T23:24:13;99188.44;;;0.64;100.00
16016;BME280;8112;53.592;10.184;2023-03-08T23:29:16;99182.88;;;0.53;100.00
16016;BME280;8112;53.592;10.184;2023-03-08T23:34:18;99182.63;;;0.38;100.00
16016;BME280;8112;53.592;10.184;2023-03-08T23:39:19;99179.22;;;0.36;100.00
16016;BME280;8112;53.592;10.184;2023-03-08T23:44:22;99184.69;;;0.30;100.00
16016;BME280;8112;53.592;10.184;2023-03-08T23:49:24;99189.03;;;0.30;100.00
16016;BME280;8112;53.592;10.184;2023-03-08T23:54:26;99185.91;;;0.21;100.00
16016;BME280;8112;53.592;10.184;2023-03-08T23:59:29;99184.81;;;0.27;100.00
